Terminal Aerodrome Forecast
Issued by NWS

Home | Current Version | Previous Version | Text Only | Print | Product List | Glossary On
Versions: 1 2 3 4 5 6 7 8 9 10 11 12 13 14 15
000
FTUS43 KJKL 260538
TAFSME
TAF
KSME 260538Z 2606/2706 VRB04KT P6SM BKN050 BKN100
     FM261300 23011G19KT 6SM -SHRA VCTS BKN050CB BKN150
     FM261700 26010G20KT 4SM -RA OVC020
     FM262000 32009G15KT 5SM -RA BR OVC009
     FM270300 35006KT 6SM -RA SCT010 BKN025=

USA.gov is the U.S. government's official web portal to all federal, state and local government web resources and services.